King City, California
Current Conditions -  °F | °C
As of 7:53 PM on Wednesday 17 Dec 2014 (Local Time) from KSNS Reporting Station
Light Rain Light Rain  
Wind Chill: 55°   Ceiling: 7000
Heat Index: 55°   Visibility: 10mi
Dew Point: 49°   Wind: 6mph
Humidity: 80%   Direction: 110°ESE
Pressure: 30.09"   Gusts: NA
Location:  36.21°N, 121.12°W
Report Text: KSNS 180353Z 11005KT 10SM -RA OVC070 13/09 A3009 RMK AO2 SLP197 P0002 T01280094
Loading
Personal Weather Stations






























Interactive Weather Map New forecast layout! Learn more

10-Day Weather Forecast

Advertisements
Track Severe Weather on mobile